sensor_id;sensor_type;location;lat;lon;timestamp;temperature;humidity
59148;DHT22;44930;52.878;6.168;2023-05-24T00:01:08;8.30;99.90
59148;DHT22;44930;52.878;6.168;2023-05-24T00:03:33;8.30;99.90
59148;DHT22;44930;52.878;6.168;2023-05-24T00:06:03;8.30;99.90
59148;DHT22;44930;52.878;6.168;2023-05-24T00:08:34;8.30;99.90
59148;DHT22;44930;52.878;6.168;2023-05-24T00:11:00;8.40;99.90
59148;DHT22;44930;52.878;6.168;2023-05-24T00:13:25;8.50;99.90
59148;DHT22;44930;52.878;6.168;2023-05-24T00:15:51;8.50;99.90
59148;DHT22;44930;52.878;6.168;2023-05-24T00:18:17;8.30;99.90
59148;DHT22;44930;52.878;6.168;2023-05-24T00:20:43;8.30;99.90
59148;DHT22;44930;52.878;6.168;2023-05-24T00:23:09;8.40;99.90
59148;DHT22;44930;52.878;6.168;2023-05-24T00:25:35;8.30;99.90
59148;DHT22;44930;52.878;6.168;2023-05-24T00:28:00;8.30;99.90
59148;DHT22;44930;52.878;6.168;2023-05-24T00:30:26;8.40;99.90
59148;DHT22;44930;52.878;6.168;2023-05-24T00:32:52;8.30;99.90
59148;DHT22;44930;52.878;6.168;2023-05-24T00:35:17;8.30;99.90
59148;DHT22;44930;52.878;6.168;2023-05-24T00:37:43;8.40;99.90
59148;DHT22;44930;52.878;6.168;2023-05-24T00:40:10;8.30;99.90
59148;DHT22;44930;52.878;6.168;2023-05-24T00:42:36;8.30;99.90
59148;DHT22;44930;52.878;6.168;2023-05-24T00:45:02;8.40;99.90
59148;DHT22;44930;52.878;6.168;2023-05-24T00:49:53;8.40;99.90
59148;DHT22;44930;52.878;6.168;2023-05-24T00:52:19;8.40;99.90
59148;DHT22;44930;52.878;6.168;2023-05-24T00:54:45;8.30;99.90
59148;DHT22;44930;52.878;6.168;2023-05-24T00:57:12;8.30;99.90
59148;DHT22;44930;52.878;6.168;2023-05-24T00:59:39;8.30;99.90
59148;DHT22;44930;52.878;6.168;2023-05-24T01:02:04;8.20;99.90
59148;DHT22;44930;52.878;6.168;2023-05-24T01:04:30;8.30;99.90
59148;DHT22;44930;52.878;6.168;2023-05-24T01:09:46;8.20;99.90
59148;DHT22;44930;52.878;6.168;2023-05-24T01:12:45;8.10;99.90
59148;DHT22;44930;52.878;6.168;2023-05-24T01:15:23;7.80;99.90
59148;DHT22;44930;52.878;6.168;2023-05-24T01:18:04;8.30;99.90
59148;DHT22;44930;52.878;6.168;2023-05-24T01:20:33;8.10;99.90
59148;DHT22;44930;52.878;6.168;2023-05-24T01:25:59;8.00;99.90
59148;DHT22;44930;52.878;6.168;2023-05-24T01:28:28;7.80;99.90
59148;DHT22;44930;52.878;6.168;2023-05-24T01:30:55;8.10;99.90
59148;DHT22;44930;52.878;6.168;2023-05-24T01:33:20;8.10;99.90
59148;DHT22;44930;52.878;6.168;2023-05-24T01:35:46;7.90;99.90
59148;DHT22;44930;52.878;6.168;2023-05-24T01:38:11;8.00;99.90
59148;DHT22;44930;52.878;6.168;2023-05-24T01:40:38;8.00;99.90
59148;DHT22;44930;52.878;6.168;2023-05-24T01:43:33;7.90;99.90
59148;DHT22;44930;52.878;6.168;2023-05-24T01:48:58;8.00;99.90
59148;DHT22;44930;52.878;6.168;2023-05-24T01:53:57;7.50;99.90
59148;DHT22;44930;52.878;6.168;2023-05-24T01:56:25;8.00;99.90
59148;DHT22;44930;52.878;6.168;2023-05-24T01:58:53;7.80;99.90
59148;DHT22;44930;52.878;6.168;2023-05-24T02:01:19;7.80;99.90
59148;DHT22;44930;52.878;6.168;2023-05-24T02:03:45;7.70;99.90
59148;DHT22;44930;52.878;6.168;2023-05-24T02:06:10;7.80;99.90
59148;DHT22;44930;52.878;6.168;2023-05-24T02:08:36;7.90;99.90
59148;DHT22;44930;52.878;6.168;2023-05-24T02:11:02;7.80;99.90
59148;DHT22;44930;52.878;6.168;2023-05-24T02:15:53;7.80;99.90
59148;DHT22;44930;52.878;6.168;2023-05-24T02:18:19;7.60;99.90
59148;DHT22;44930;52.878;6.168;2023-05-24T02:20:45;7.70;99.90
59148;DHT22;44930;52.878;6.168;2023-05-24T02:23:11;7.80;99.90
59148;DHT22;44930;52.878;6.168;2023-05-24T02:28:02;7.50;99.90
59148;DHT22;44930;52.878;6.168;2023-05-24T02:32:54;7.60;99.90
59148;DHT22;44930;52.878;6.168;2023-05-24T02:35:20;7.40;99.90
59148;DHT22;44930;52.878;6.168;2023-05-24T02:37:46;7.70;99.90
59148;DHT22;44930;52.878;6.168;2023-05-24T02:40:11;7.60;99.90
59148;DHT22;44930;52.878;6.168;2023-05-24T02:42:37;7.60;99.90
59148;DHT22;44930;52.878;6.168;2023-05-24T02:45:03;7.70;99.90
59148;DHT22;44930;52.878;6.168;2023-05-24T02:47:28;7.60;99.90
59148;DHT22;44930;52.878;6.168;2023-05-24T02:49:54;7.70;99.90
59148;DHT22;44930;52.878;6.168;2023-05-24T02:52:20;7.70;99.90
59148;DHT22;44930;52.878;6.168;2023-05-24T02:54:50;7.80;99.90
59148;DHT22;44930;52.878;6.168;2023-05-24T02:57:15;7.80;99.90
59148;DHT22;44930;52.878;6.168;2023-05-24T02:59:41;7.70;99.90
59148;DHT22;44930;52.878;6.168;2023-05-24T03:02:08;7.70;99.90
59148;DHT22;44930;52.878;6.168;2023-05-24T03:04:33;7.60;99.90
59148;DHT22;44930;52.878;6.168;2023-05-24T03:06:59;7.50;99.90
59148;DHT22;44930;52.878;6.168;2023-05-24T03:09:24;7.50;99.90
59148;DHT22;44930;52.878;6.168;2023-05-24T03:11:50;7.30;99.90
59148;DHT22;44930;52.878;6.168;2023-05-24T03:14:19;7.50;99.90
59148;DHT22;44930;52.878;6.168;2023-05-24T03:16:47;7.40;99.90
59148;DHT22;44930;52.878;6.168;2023-05-24T03:19:13;7.50;99.90
59148;DHT22;44930;52.878;6.168;2023-05-24T03:21:38;7.30;99.90
59148;DHT22;44930;52.878;6.168;2023-05-24T03:24:04;7.40;99.90
59148;DHT22;44930;52.878;6.168;2023-05-24T03:28:55;7.50;99.90
59148;DHT22;44930;52.878;6.168;2023-05-24T03:31:21;7.40;99.90
59148;DHT22;44930;52.878;6.168;2023-05-24T03:33:48;7.70;99.90
59148;DHT22;44930;52.878;6.168;2023-05-24T03:36:14;7.50;99.90
59148;DHT22;44930;52.878;6.168;2023-05-24T03:38:39;7.40;99.90
59148;DHT22;44930;52.878;6.168;2023-05-24T03:41:05;7.60;99.90
59148;DHT22;44930;52.878;6.168;2023-05-24T03:45:56;7.40;99.90
59148;DHT22;44930;52.878;6.168;2023-05-24T03:48:22;7.20;99.90
59148;DHT22;44930;52.878;6.168;2023-05-24T03:50:47;7.30;99.90
59148;DHT22;44930;52.878;6.168;2023-05-24T03:53:13;7.40;99.90
59148;DHT22;44930;52.878;6.168;2023-05-24T03:55:39;7.20;99.90
59148;DHT22;44930;52.878;6.168;2023-05-24T03:58:04;7.30;99.90
59148;DHT22;44930;52.878;6.168;2023-05-24T04:02:56;7.40;99.90
59148;DHT22;44930;52.878;6.168;2023-05-24T04:05:21;7.30;99.90
59148;DHT22;44930;52.878;6.168;2023-05-24T04:07:51;7.30;99.90
59148;DHT22;44930;52.878;6.168;2023-05-24T04:10:17;7.20;99.90
59148;DHT22;44930;52.878;6.168;2023-05-24T04:12:44;7.30;99.90
59148;DHT22;44930;52.878;6.168;2023-05-24T04:15:09;7.30;99.90
59148;DHT22;44930;52.878;6.168;2023-05-24T04:17:40;7.30;99.90
59148;DHT22;44930;52.878;6.168;2023-05-24T04:20:06;7.40;99.90
59148;DHT22;44930;52.878;6.168;2023-05-24T04:22:33;7.20;99.90
59148;DHT22;44930;52.878;6.168;2023-05-24T04:25:01;7.50;99.90
59148;DHT22;44930;52.878;6.168;2023-05-24T04:27:27;7.20;99.90
59148;DHT22;44930;52.878;6.168;2023-05-24T04:29:52;7.30;99.90
59148;DHT22;44930;52.878;6.168;2023-05-24T04:32:18;7.30;99.90
59148;DHT22;44930;52.878;6.168;2023-05-24T04:37:11;7.40;99.90
59148;DHT22;44930;52.878;6.168;2023-05-24T04:39:38;7.40;99.90
59148;DHT22;44930;52.878;6.168;2023-05-24T04:46:56;7.40;99.90
59148;DHT22;44930;52.878;6.168;2023-05-24T04:49:22;7.50;99.90
59148;DHT22;44930;52.878;6.168;2023-05-24T04:51:47;7.30;99.90
59148;DHT22;44930;52.878;6.168;2023-05-24T04:54:13;7.50;99.90
59148;DHT22;44930;52.878;6.168;2023-05-24T04:56:39;7.50;99.90
59148;DHT22;44930;52.878;6.168;2023-05-24T04:59:05;7.60;99.90
59148;DHT22;44930;52.878;6.168;2023-05-24T05:01:31;7.50;99.90
59148;DHT22;44930;52.878;6.168;2023-05-24T05:03:57;8.00;99.90
59148;DHT22;44930;52.878;6.168;2023-05-24T05:06:23;7.60;99.90
59148;DHT22;44930;52.878;6.168;2023-05-24T05:08:49;7.80;99.90
59148;DHT22;44930;52.878;6.168;2023-05-24T05:11:16;7.80;99.90
59148;DHT22;44930;52.878;6.168;2023-05-24T05:13:43;7.80;99.90
59148;DHT22;44930;52.878;6.168;2023-05-24T05:16:08;7.90;99.90
59148;DHT22;44930;52.878;6.168;2023-05-24T05:21:00;8.30;99.90
59148;DHT22;44930;52.878;6.168;2023-05-24T05:25:53;8.30;99.90
59148;DHT22;44930;52.878;6.168;2023-05-24T05:30:44;8.50;99.90
59148;DHT22;44930;52.878;6.168;2023-05-24T05:33:10;8.70;99.90
59148;DHT22;44930;52.878;6.168;2023-05-24T05:35:36;8.60;99.90
59148;DHT22;44930;52.878;6.168;2023-05-24T05:38:02;8.70;99.90
59148;DHT22;44930;52.878;6.168;2023-05-24T05:42:53;8.90;99.90
59148;DHT22;44930;52.878;6.168;2023-05-24T05:45:19;9.00;99.90
59148;DHT22;44930;52.878;6.168;2023-05-24T05:47:44;9.00;99.90
59148;DHT22;44930;52.878;6.168;2023-05-24T05:50:10;9.10;99.90
59148;DHT22;44930;52.878;6.168;2023-05-24T05:52:35;9.20;99.90
59148;DHT22;44930;52.878;6.168;2023-05-24T05:55:01;9.20;99.90
59148;DHT22;44930;52.878;6.168;2023-05-24T05:57:27;9.10;99.90
59148;DHT22;44930;52.878;6.168;2023-05-24T05:59:52;9.10;99.90
59148;DHT22;44930;52.878;6.168;2023-05-24T06:02:18;9.50;99.90
59148;DHT22;44930;52.878;6.168;2023-05-24T06:04:45;9.30;99.90
59148;DHT22;44930;52.878;6.168;2023-05-24T06:07:10;9.40;99.90
59148;DHT22;44930;52.878;6.168;2023-05-24T06:12:02;9.60;99.90
59148;DHT22;44930;52.878;6.168;2023-05-24T06:16:54;9.50;99.90
59148;DHT22;44930;52.878;6.168;2023-05-24T06:19:20;9.60;99.90
59148;DHT22;44930;52.878;6.168;2023-05-24T06:21:49;9.80;99.90
59148;DHT22;44930;52.878;6.168;2023-05-24T06:24:18;10.10;99.90
59148;DHT22;44930;52.878;6.168;2023-05-24T06:26:49;9.90;99.90
59148;DHT22;44930;52.878;6.168;2023-05-24T06:29:15;10.00;99.90
59148;DHT22;44930;52.878;6.168;2023-05-24T06:31:40;9.90;99.90
59148;DHT22;44930;52.878;6.168;2023-05-24T06:34:07;10.10;99.90
59148;DHT22;44930;52.878;6.168;2023-05-24T06:36:33;10.20;99.90
59148;DHT22;44930;52.878;6.168;2023-05-24T06:39:00;10.20;99.90
59148;DHT22;44930;52.878;6.168;2023-05-24T06:41:26;10.30;99.90
59148;DHT22;44930;52.878;6.168;2023-05-24T06:43:52;10.40;99.90
59148;DHT22;44930;52.878;6.168;2023-05-24T06:46:17;10.50;99.90
59148;DHT22;44930;52.878;6.168;2023-05-24T06:48:43;10.60;99.90
59148;DHT22;44930;52.878;6.168;2023-05-24T06:51:08;10.60;99.90
59148;DHT22;44930;52.878;6.168;2023-05-24T06:53:34;10.80;99.90
59148;DHT22;44930;52.878;6.168;2023-05-24T06:55:59;10.80;99.90
59148;DHT22;44930;52.878;6.168;2023-05-24T06:58:25;11.00;99.90
59148;DHT22;44930;52.878;6.168;2023-05-24T07:00:51;10.90;99.90
59148;DHT22;44930;52.878;6.168;2023-05-24T07:03:17;11.50;99.90
59148;DHT22;44930;52.878;6.168;2023-05-24T07:05:43;10.90;99.90
59148;DHT22;44930;52.878;6.168;2023-05-24T07:08:08;11.00;99.90
59148;DHT22;44930;52.878;6.168;2023-05-24T07:10:34;10.90;99.90
59148;DHT22;44930;52.878;6.168;2023-05-24T07:12:59;11.10;99.90
59148;DHT22;44930;52.878;6.168;2023-05-24T07:15:26;11.10;99.90
59148;DHT22;44930;52.878;6.168;2023-05-24T07:17:52;10.90;99.90
59148;DHT22;44930;52.878;6.168;2023-05-24T07:20:18;11.00;99.90
59148;DHT22;44930;52.878;6.168;2023-05-24T07:22:43;11.10;99.90
59148;DHT22;44930;52.878;6.168;2023-05-24T07:25:09;11.10;99.90
59148;DHT22;44930;52.878;6.168;2023-05-24T07:27:34;11.30;99.90
59148;DHT22;44930;52.878;6.168;2023-05-24T07:30:01;11.60;99.90
59148;DHT22;44930;52.878;6.168;2023-05-24T07:32:27;11.40;99.90
59148;DHT22;44930;52.878;6.168;2023-05-24T07:34:53;11.30;99.90
59148;DHT22;44930;52.878;6.168;2023-05-24T07:37:19;11.60;99.90
59148;DHT22;44930;52.878;6.168;2023-05-24T07:39:48;11.50;99.90
59148;DHT22;44930;52.878;6.168;2023-05-24T07:42:14;11.30;99.90
59148;DHT22;44930;52.878;6.168;2023-05-24T07:44:39;11.50;99.90
59148;DHT22;44930;52.878;6.168;2023-05-24T07:47:05;11.50;99.90
59148;DHT22;44930;52.878;6.168;2023-05-24T07:51:57;11.60;99.90
59148;DHT22;44930;52.878;6.168;2023-05-24T07:54:24;11.50;99.90
59148;DHT22;44930;52.878;6.168;2023-05-24T07:56:50;11.70;99.90
59148;DHT22;44930;52.878;6.168;2023-05-24T07:59:16;12.10;99.90
59148;DHT22;44930;52.878;6.168;2023-05-24T08:01:42;12.00;99.90
59148;DHT22;44930;52.878;6.168;2023-05-24T08:04:08;11.70;99.90
59148;DHT22;44930;52.878;6.168;2023-05-24T08:06:34;12.40;99.90
59148;DHT22;44930;52.878;6.168;2023-05-24T08:09:03;12.10;99.90
59148;DHT22;44930;52.878;6.168;2023-05-24T08:11:29;12.10;99.90
59148;DHT22;44930;52.878;6.168;2023-05-24T08:13:55;12.00;99.90
59148;DHT22;44930;52.878;6.168;2023-05-24T08:16:20;12.20;99.90
59148;DHT22;44930;52.878;6.168;2023-05-24T08:18:46;12.30;99.90
59148;DHT22;44930;52.878;6.168;2023-05-24T08:21:12;12.30;99.90
59148;DHT22;44930;52.878;6.168;2023-05-24T08:23:37;12.10;99.90
59148;DHT22;44930;52.878;6.168;2023-05-24T08:26:03;12.20;99.90
59148;DHT22;44930;52.878;6.168;2023-05-24T08:28:29;12.20;99.90
59148;DHT22;44930;52.878;6.168;2023-05-24T08:30:54;11.90;99.90
59148;DHT22;44930;52.878;6.168;2023-05-24T08:33:21;12.20;99.90
59148;DHT22;44930;52.878;6.168;2023-05-24T08:35:48;12.30;99.90
59148;DHT22;44930;52.878;6.168;2023-05-24T08:38:14;12.10;99.90
59148;DHT22;44930;52.878;6.168;2023-05-24T08:40:39;12.20;99.90
59148;DHT22;44930;52.878;6.168;2023-05-24T08:43:06;12.20;99.90
59148;DHT22;44930;52.878;6.168;2023-05-24T08:45:39;12.10;99.90
59148;DHT22;44930;52.878;6.168;2023-05-24T08:48:05;12.20;99.90
59148;DHT22;44930;52.878;6.168;2023-05-24T08:50:32;12.50;99.90
59148;DHT22;44930;52.878;6.168;2023-05-24T08:52:58;12.30;99.90
59148;DHT22;44930;52.878;6.168;2023-05-24T08:55:24;12.40;99.90
59148;DHT22;44930;52.878;6.168;2023-05-24T08:57:51;12.40;99.90
59148;DHT22;44930;52.878;6.168;2023-05-24T09:00:17;12.40;99.90
59148;DHT22;44930;52.878;6.168;2023-05-24T09:02:44;12.30;99.90
59148;DHT22;44930;52.878;6.168;2023-05-24T09:05:12;12.50;99.90
59148;DHT22;44930;52.878;6.168;2023-05-24T09:07:43;12.60;99.90
59148;DHT22;44930;52.878;6.168;2023-05-24T09:10:09;12.40;99.90
59148;DHT22;44930;52.878;6.168;2023-05-24T09:12:37;12.40;99.90
59148;DHT22;44930;52.878;6.168;2023-05-24T09:15:04;12.50;99.90
59148;DHT22;44930;52.878;6.168;2023-05-24T09:17:30;12.30;99.90
59148;DHT22;44930;52.878;6.168;2023-05-24T09:19:56;12.60;99.90
59148;DHT22;44930;52.878;6.168;2023-05-24T09:22:24;12.60;99.90
59148;DHT22;44930;52.878;6.168;2023-05-24T09:24:51;12.40;99.90
59148;DHT22;44930;52.878;6.168;2023-05-24T09:27:18;12.20;99.90
59148;DHT22;44930;52.878;6.168;2023-05-24T09:29:48;12.30;99.90
59148;DHT22;44930;52.878;6.168;2023-05-24T09:32:14;12.40;99.90
59148;DHT22;44930;52.878;6.168;2023-05-24T09:34:41;12.60;99.90
59148;DHT22;44930;52.878;6.168;2023-05-24T09:37:26;12.20;99.90
59148;DHT22;44930;52.878;6.168;2023-05-24T09:39:52;12.80;99.90
59148;DHT22;44930;52.878;6.168;2023-05-24T09:42:20;12.60;99.90
59148;DHT22;44930;52.878;6.168;2023-05-24T09:45:08;12.70;99.90
59148;DHT22;44930;52.878;6.168;2023-05-24T09:47:39;12.70;99.90
59148;DHT22;44930;52.878;6.168;2023-05-24T09:50:11;12.80;99.90
59148;DHT22;44930;52.878;6.168;2023-05-24T09:52:37;12.80;99.90
59148;DHT22;44930;52.878;6.168;2023-05-24T09:55:17;12.60;99.90
59148;DHT22;44930;52.878;6.168;2023-05-24T09:57:43;12.80;99.90
59148;DHT22;44930;52.878;6.168;2023-05-24T10:00:10;12.70;99.90
59148;DHT22;44930;52.878;6.168;2023-05-24T10:02:44;12.70;99.90
59148;DHT22;44930;52.878;6.168;2023-05-24T10:05:11;12.70;99.90
59148;DHT22;44930;52.878;6.168;2023-05-24T10:07:37;12.50;99.90
59148;DHT22;44930;52.878;6.168;2023-05-24T10:10:04;13.00;99.90
59148;DHT22;44930;52.878;6.168;2023-05-24T10:12:32;12.70;99.90
59148;DHT22;44930;52.878;6.168;2023-05-24T10:14:58;12.70;99.90
59148;DHT22;44930;52.878;6.168;2023-05-24T10:17:24;12.70;99.90
59148;DHT22;44930;52.878;6.168;2023-05-24T10:19:53;12.60;99.90
59148;DHT22;44930;52.878;6.168;2023-05-24T10:22:20;13.00;99.90
59148;DHT22;44930;52.878;6.168;2023-05-24T10:24:52;13.10;99.90
59148;DHT22;44930;52.878;6.168;2023-05-24T10:27:24;13.10;99.90
59148;DHT22;44930;52.878;6.168;2023-05-24T10:30:00;13.50;99.90
59148;DHT22;44930;52.878;6.168;2023-05-24T10:32:30;13.20;99.90
59148;DHT22;44930;52.878;6.168;2023-05-24T10:34:58;13.60;99.90
59148;DHT22;44930;52.878;6.168;2023-05-24T10:37:25;13.70;99.90
59148;DHT22;44930;52.878;6.168;2023-05-24T10:39:53;13.20;99.90
59148;DHT22;44930;52.878;6.168;2023-05-24T10:42:19;13.40;99.90
59148;DHT22;44930;52.878;6.168;2023-05-24T10:44:44;13.80;99.90
59148;DHT22;44930;52.878;6.168;2023-05-24T10:47:12;13.80;99.90
59148;DHT22;44930;52.878;6.168;2023-05-24T10:52:15;14.30;99.90
59148;DHT22;44930;52.878;6.168;2023-05-24T10:55:03;13.90;99.90
59148;DHT22;44930;52.878;6.168;2023-05-24T10:57:29;14.30;99.90
59148;DHT22;44930;52.878;6.168;2023-05-24T10:59:58;14.20;99.90
59148;DHT22;44930;52.878;6.168;2023-05-24T11:02:43;14.10;99.90
59148;DHT22;44930;52.878;6.168;2023-05-24T11:05:08;14.10;99.90
59148;DHT22;44930;52.878;6.168;2023-05-24T11:07:40;14.00;99.90
59148;DHT22;44930;52.878;6.168;2023-05-24T11:10:14;14.60;99.90
59148;DHT22;44930;52.878;6.168;2023-05-24T11:12:41;14.70;99.90
59148;DHT22;44930;52.878;6.168;2023-05-24T11:15:09;14.50;99.90
59148;DHT22;44930;52.878;6.168;2023-05-24T11:20:37;14.30;99.90
59148;DHT22;44930;52.878;6.168;2023-05-24T11:23:07;14.30;99.90
59148;DHT22;44930;52.878;6.168;2023-05-24T11:25:37;14.20;99.90
59148;DHT22;44930;52.878;6.168;2023-05-24T11:28:06;14.10;99.90
59148;DHT22;44930;52.878;6.168;2023-05-24T11:30:32;14.40;99.90
59148;DHT22;44930;52.878;6.168;2023-05-24T11:32:58;14.40;99.90
59148;DHT22;44930;52.878;6.168;2023-05-24T11:35:25;14.50;99.90
59148;DHT22;44930;52.878;6.168;2023-05-24T11:37:53;14.90;99.90
59148;DHT22;44930;52.878;6.168;2023-05-24T11:40:18;14.60;99.90
59148;DHT22;44930;52.878;6.168;2023-05-24T11:42:45;14.90;99.90
59148;DHT22;44930;52.878;6.168;2023-05-24T11:45:11;14.30;99.90
59148;DHT22;44930;52.878;6.168;2023-05-24T11:47:38;14.30;99.90
59148;DHT22;44930;52.878;6.168;2023-05-24T11:50:05;14.50;99.90
59148;DHT22;44930;52.878;6.168;2023-05-24T11:52:31;14.90;99.90
59148;DHT22;44930;52.878;6.168;2023-05-24T11:54:57;14.60;99.90
59148;DHT22;44930;52.878;6.168;2023-05-24T11:57:39;14.40;99.90
59148;DHT22;44930;52.878;6.168;2023-05-24T12:00:07;14.90;99.90
59148;DHT22;44930;52.878;6.168;2023-05-24T12:02:41;14.80;99.90
59148;DHT22;44930;52.878;6.168;2023-05-24T12:05:08;14.60;99.90
59148;DHT22;44930;52.878;6.168;2023-05-24T12:07:35;15.40;99.90
59148;DHT22;44930;52.878;6.168;2023-05-24T12:10:03;15.00;99.90
59148;DHT22;44930;52.878;6.168;2023-05-24T12:12:29;15.50;99.90
59148;DHT22;44930;52.878;6.168;2023-05-24T12:14:55;15.50;99.90
59148;DHT22;44930;52.878;6.168;2023-05-24T12:17:21;15.00;99.90
59148;DHT22;44930;52.878;6.168;2023-05-24T12:19:48;15.40;99.90
59148;DHT22;44930;52.878;6.168;2023-05-24T12:22:14;15.40;99.90
59148;DHT22;44930;52.878;6.168;2023-05-24T12:24:40;15.20;99.90
59148;DHT22;44930;52.878;6.168;2023-05-24T12:27:06;15.10;99.90
59148;DHT22;44930;52.878;6.168;2023-05-24T12:29:37;15.20;99.90
59148;DHT22;44930;52.878;6.168;2023-05-24T12:32:05;15.40;99.90
59148;DHT22;44930;52.878;6.168;2023-05-24T12:34:31;15.50;99.90
59148;DHT22;44930;52.878;6.168;2023-05-24T12:36:58;15.90;99.90
59148;DHT22;44930;52.878;6.168;2023-05-24T12:39:26;15.50;99.90
59148;DHT22;44930;52.878;6.168;2023-05-24T12:42:01;15.00;99.90
59148;DHT22;44930;52.878;6.168;2023-05-24T12:44:32;14.90;99.90
59148;DHT22;44930;52.878;6.168;2023-05-24T12:46:58;14.80;99.90
59148;DHT22;44930;52.878;6.168;2023-05-24T12:49:24;14.70;99.90
59148;DHT22;44930;52.878;6.168;2023-05-24T12:51:51;14.60;99.90
59148;DHT22;44930;52.878;6.168;2023-05-24T12:54:18;14.80;99.90
59148;DHT22;44930;52.878;6.168;2023-05-24T12:56:44;14.80;99.90
59148;DHT22;44930;52.878;6.168;2023-05-24T12:59:10;14.80;99.90
59148;DHT22;44930;52.878;6.168;2023-05-24T13:01:36;14.80;99.90
59148;DHT22;44930;52.878;6.168;2023-05-24T13:04:02;15.00;99.90
59148;DHT22;44930;52.878;6.168;2023-05-24T13:06:28;15.20;99.90
59148;DHT22;44930;52.878;6.168;2023-05-24T13:08:53;14.70;99.90
59148;DHT22;44930;52.878;6.168;2023-05-24T13:11:19;14.70;99.90
59148;DHT22;44930;52.878;6.168;2023-05-24T13:13:44;14.40;99.90
59148;DHT22;44930;52.878;6.168;2023-05-24T13:16:10;14.90;99.90
59148;DHT22;44930;52.878;6.168;2023-05-24T13:18:36;14.80;99.90
59148;DHT22;44930;52.878;6.168;2023-05-24T13:21:03;15.10;99.90
59148;DHT22;44930;52.878;6.168;2023-05-24T13:23:31;15.00;99.90
59148;DHT22;44930;52.878;6.168;2023-05-24T13:25:57;15.00;99.90
59148;DHT22;44930;52.878;6.168;2023-05-24T13:28:22;14.50;99.90
59148;DHT22;44930;52.878;6.168;2023-05-24T13:30:48;14.60;99.90
59148;DHT22;44930;52.878;6.168;2023-05-24T13:33:14;14.20;99.90
59148;DHT22;44930;52.878;6.168;2023-05-24T13:35:40;14.30;99.90
59148;DHT22;44930;52.878;6.168;2023-05-24T13:38:06;14.40;99.90
59148;DHT22;44930;52.878;6.168;2023-05-24T13:40:33;14.30;99.90
59148;DHT22;44930;52.878;6.168;2023-05-24T13:42:58;14.40;99.90
59148;DHT22;44930;52.878;6.168;2023-05-24T13:45:24;14.40;99.90
59148;DHT22;44930;52.878;6.168;2023-05-24T13:47:50;14.40;99.90
59148;DHT22;44930;52.878;6.168;2023-05-24T13:50:16;14.80;99.90
59148;DHT22;44930;52.878;6.168;2023-05-24T13:52:42;13.90;99.90
59148;DHT22;44930;52.878;6.168;2023-05-24T13:55:08;14.30;99.90
59148;DHT22;44930;52.878;6.168;2023-05-24T13:57:34;14.20;99.90
59148;DHT22;44930;52.878;6.168;2023-05-24T14:00:00;14.20;99.90
59148;DHT22;44930;52.878;6.168;2023-05-24T14:02:26;14.40;99.90
59148;DHT22;44930;52.878;6.168;2023-05-24T14:04:52;14.80;99.90
59148;DHT22;44930;52.878;6.168;2023-05-24T14:07:18;14.30;99.90
59148;DHT22;44930;52.878;6.168;2023-05-24T14:09:44;14.00;99.90
59148;DHT22;44930;52.878;6.168;2023-05-24T14:12:09;14.40;99.90
59148;DHT22;44930;52.878;6.168;2023-05-24T14:14:35;14.30;99.90
59148;DHT22;44930;52.878;6.168;2023-05-24T14:17:01;13.80;99.90
59148;DHT22;44930;52.878;6.168;2023-05-24T14:19:26;14.30;99.90
59148;DHT22;44930;52.878;6.168;2023-05-24T14:21:52;14.50;99.90
59148;DHT22;44930;52.878;6.168;2023-05-24T14:24:18;14.60;99.90
59148;DHT22;44930;52.878;6.168;2023-05-24T14:26:43;14.70;99.90
59148;DHT22;44930;52.878;6.168;2023-05-24T14:29:11;14.60;99.90
59148;DHT22;44930;52.878;6.168;2023-05-24T14:31:37;14.30;99.90
59148;DHT22;44930;52.878;6.168;2023-05-24T14:34:10;14.20;99.90
59148;DHT22;44930;52.878;6.168;2023-05-24T14:36:36;14.70;99.90
59148;DHT22;44930;52.878;6.168;2023-05-24T14:39:04;14.70;99.90
59148;DHT22;44930;52.878;6.168;2023-05-24T14:41:31;14.90;99.90
59148;DHT22;44930;52.878;6.168;2023-05-24T14:43:56;14.70;99.90
59148;DHT22;44930;52.878;6.168;2023-05-24T14:46:22;14.70;99.90
59148;DHT22;44930;52.878;6.168;2023-05-24T14:48:48;14.70;99.90
59148;DHT22;44930;52.878;6.168;2023-05-24T14:51:13;14.90;99.90
59148;DHT22;44930;52.878;6.168;2023-05-24T14:53:39;14.70;99.90
59148;DHT22;44930;52.878;6.168;2023-05-24T14:56:05;14.90;99.90
59148;DHT22;44930;52.878;6.168;2023-05-24T14:58:32;14.70;99.90
59148;DHT22;44930;52.878;6.168;2023-05-24T15:00:58;14.10;99.90
59148;DHT22;44930;52.878;6.168;2023-05-24T15:03:23;14.90;99.90
59148;DHT22;44930;52.878;6.168;2023-05-24T15:05:49;15.00;99.90
59148;DHT22;44930;52.878;6.168;2023-05-24T15:08:15;15.40;99.90
59148;DHT22;44930;52.878;6.168;2023-05-24T15:10:41;14.80;99.90
59148;DHT22;44930;52.878;6.168;2023-05-24T15:13:08;15.40;99.90
59148;DHT22;44930;52.878;6.168;2023-05-24T15:15:34;15.60;99.90
59148;DHT22;44930;52.878;6.168;2023-05-24T15:18:00;15.30;99.90
59148;DHT22;44930;52.878;6.168;2023-05-24T15:20:25;14.70;99.90
59148;DHT22;44930;52.878;6.168;2023-05-24T15:22:51;15.00;99.90
59148;DHT22;44930;52.878;6.168;2023-05-24T15:25:17;14.80;99.90
59148;DHT22;44930;52.878;6.168;2023-05-24T15:27:42;15.20;99.90
59148;DHT22;44930;52.878;6.168;2023-05-24T15:30:08;14.80;99.90
59148;DHT22;44930;52.878;6.168;2023-05-24T15:32:34;14.90;99.90
59148;DHT22;44930;52.878;6.168;2023-05-24T15:35:00;15.00;99.90
59148;DHT22;44930;52.878;6.168;2023-05-24T15:37:25;15.50;99.90
59148;DHT22;44930;52.878;6.168;2023-05-24T15:39:51;14.90;99.90
59148;DHT22;44930;52.878;6.168;2023-05-24T15:42:17;15.60;99.90
59148;DHT22;44930;52.878;6.168;2023-05-24T15:44:44;15.20;99.90
59148;DHT22;44930;52.878;6.168;2023-05-24T15:47:10;14.80;99.90
59148;DHT22;44930;52.878;6.168;2023-05-24T15:49:36;15.10;99.90
59148;DHT22;44930;52.878;6.168;2023-05-24T15:52:01;14.90;99.90
59148;DHT22;44930;52.878;6.168;2023-05-24T15:54:27;14.80;99.90
59148;DHT22;44930;52.878;6.168;2023-05-24T15:56:52;15.00;99.90
59148;DHT22;44930;52.878;6.168;2023-05-24T15:59:18;14.90;99.90
59148;DHT22;44930;52.878;6.168;2023-05-24T16:01:44;14.80;99.90
59148;DHT22;44930;52.878;6.168;2023-05-24T16:04:09;14.70;99.90
59148;DHT22;44930;52.878;6.168;2023-05-24T16:06:35;15.30;99.90
59148;DHT22;44930;52.878;6.168;2023-05-24T16:09:01;15.40;99.90
59148;DHT22;44930;52.878;6.168;2023-05-24T16:11:26;14.90;99.90
59148;DHT22;44930;52.878;6.168;2023-05-24T16:13:52;14.90;99.90
59148;DHT22;44930;52.878;6.168;2023-05-24T16:16:18;15.10;99.90
59148;DHT22;44930;52.878;6.168;2023-05-24T16:18:48;15.20;99.90
59148;DHT22;44930;52.878;6.168;2023-05-24T16:21:13;15.00;99.90
59148;DHT22;44930;52.878;6.168;2023-05-24T16:23:39;15.20;99.90
59148;DHT22;44930;52.878;6.168;2023-05-24T16:26:04;14.80;99.90
59148;DHT22;44930;52.878;6.168;2023-05-24T16:28:30;15.50;99.90
59148;DHT22;44930;52.878;6.168;2023-05-24T16:30:57;15.00;99.90
59148;DHT22;44930;52.878;6.168;2023-05-24T16:33:23;14.90;99.90